Time;durP1;ratioP1;P1;durP2;ratioP2;P2;SDS_P1;SDS_P2;PMS_P1;PMS_P2;Temp;Humidity;BMP_temperature;BMP_pressure;BME280_temperature;BME280_humidity;BME280_pressure;Samples;Min_cycle;Max_cycle;Signal;HPM_P1;HPM_P2
2021/07/08 00:02:10;;;;;;;6.67;6.20;;;17.40;95.70;;;;;;5018329;28;20914;-92
2021/07/08 00:05:01;;;;;;;6.27;5.90;;;17.20;96.10;;;;;;5037283;28;20515;-93
2021/07/08 00:07:33;;;;;;;5.30;4.90;;;17.90;95.80;;;;;;5035055;28;20988;-92
2021/07/08 00:10:28;;;;;;;6.30;5.80;;;15.90;93.80;;;;;;5035837;28;20415;-92
2021/07/08 00:13:22;;;;;;;5.73;5.30;;;20.30;96.20;;;;;;5034547;28;20424;-93
2021/07/08 00:15:57;;;;;;;7.47;5.70;;;18.00;95.10;;;;;;5029232;28;20441;-92
2021/07/08 00:18:30;;;;;;;6.10;5.60;;;18.20;95.80;;;;;;5036210;28;20414;-92
2021/07/08 00:21:11;;;;;;;;;;;;;;;;;;;;;
2021/07/08 00:23:38;;;;;;;5.90;5.60;;;20.90;97.90;;;;;;5022073;28;20439;-92
2021/07/08 00:26:11;;;;;;;7.07;6.67;;;16.90;96.40;;;;;;5032502;28;20416;-92
2021/07/08 00:28:37;;;;;;;6.60;6.20;;;17.30;95.30;;;;;;5033495;28;20482;-92
2021/07/08 00:31:11;;;;;;;6.80;6.17;;;14.90;94.30;;;;;;5034479;28;20462;-92
2021/07/08 00:33:39;;;;;;;5.30;5.10;;;18.10;94.70;;;;;;5034916;28;20426;-92
2021/07/08 00:36:10;;;;;;;5.90;5.50;;;17.10;94.10;;;;;;5035880;28;20407;-92
2021/07/08 00:38:41;;;;;;;5.67;5.10;;;17.80;94.50;;;;;;5034138;28;20400;-91
2021/07/08 00:41:10;;;;;;;5.30;4.93;;;16.60;95.40;;;;;;5019705;28;20428;-92
2021/07/08 00:43:39;;;;;;;5.57;5.13;;;16.60;94.50;;;;;;5034753;28;20419;-92
2021/07/08 00:49:04;;;;;;;6.30;5.70;;;16.50;94.30;;;;;;5035921;28;20466;-93
2021/07/08 00:51:54;;;;;;;5.80;5.40;;;16.50;94.80;;;;;;5035574;28;20510;-92
2021/07/08 00:54:26;;;;;;;5.20;5.00;;;19.20;97.00;;;;;;5042229;28;20442;-90
2021/07/08 00:57:23;;;;;;;5.97;5.47;;;17.90;96.40;;;;;;5039204;28;20431;-93
2021/07/08 00:59:53;;;;;;;6.30;5.80;;;17.80;96.60;;;;;;5039949;28;20422;-93
2021/07/08 01:02:37;;;;;;;8.17;6.40;;;16.40;96.30;;;;;;5006446;28;20422;-93
2021/07/08 01:05:05;;;;;;;10.37;6.70;;;19.40;97.90;;;;;;5043132;28;20403;-92
2021/07/08 01:07:57;;;;;;;6.03;5.63;;;16.50;96.70;;;;;;5045195;28;20499;-92
2021/07/08 01:10:45;;;;;;;5.77;5.47;;;16.50;96.90;;;;;;5042406;28;20402;-93
2021/07/08 01:13:14;;;;;;;5.20;5.00;;;16.50;96.10;;;;;;5043717;28;20425;-92
2021/07/08 01:16:35;;;;;;;5.80;5.50;;;16.50;95.90;;;;;;5043485;28;20426;-92
2021/07/08 01:19:08;;;;;;;6.80;6.20;;;19.40;97.20;;;;;;5042805;28;21063;-92
2021/07/08 01:21:37;;;;;;;7.03;6.43;;;19.00;96.80;;;;;;5059689;28;20422;-93
2021/07/08 01:24:10;;;;;;;6.23;5.83;;;16.90;95.80;;;;;;5054802;28;20418;-92
2021/07/08 01:26:44;;;;;;;6.23;5.83;;;15.20;94.90;;;;;;5025735;28;20422;-92
2021/07/08 01:29:20;;;;;;;5.50;5.23;;;17.50;96.00;;;;;;5037820;28;20466;-92
2021/07/08 01:31:56;;;;;;;5.87;5.30;;;18.60;96.20;;;;;;5042963;28;20422;-93
2021/07/08 01:34:25;;;;;;;6.13;5.77;;;15.30;94.50;;;;;;5042351;28;20422;-93
2021/07/08 01:36:54;;;;;;;10.07;6.47;;;18.90;97.30;;;;;;5040129;28;20446;-92
2021/07/08 01:39:23;;;;;;;7.03;6.33;;;17.40;96.30;;;;;;5057888;28;20403;-92
2021/07/08 01:41:48;;;;;;;10.40;6.70;;;16.30;95.30;;;;;;5041770;28;20414;-93
2021/07/08 01:44:21;;;;;;;6.60;6.13;;;16.20;96.20;;;;;;5042372;28;20497;-92
2021/07/08 01:46:55;;;;;;;7.17;6.67;;;16.20;96.50;;;;;;5025612;28;20202;-92
2021/07/08 01:49:24;;;;;;;6.00;5.70;;;16.30;96.10;;;;;;5030826;28;20446;-92
2021/07/08 01:51:53;;;;;;;11.70;7.13;;;16.20;95.80;;;;;;5042187;28;20395;-90
2021/07/08 01:54:20;;;;;;;6.10;5.60;;;16.40;96.50;;;;;;5024839;28;20489;-93
2021/07/08 01:56:54;;;;;;;6.07;5.70;;;16.20;96.00;;;;;;5036378;28;20434;-92
2021/07/08 02:00:01;;;;;;;6.93;6.40;;;16.10;95.30;;;;;;5028735;28;20422;-92
2021/07/08 02:02:52;;;;;;;7.20;6.80;;;16.60;95.80;;;;;;5042001;28;20399;-92
2021/07/08 02:05:29;;;;;;;6.40;6.10;;;13.90;93.90;;;;;;5058178;28;20445;-92
2021/07/08 02:08:24;;;;;;;6.83;5.37;;;16.40;95.90;;;;;;5060608;28;20454;-91
2021/07/08 02:10:50;;;;;;;7.17;6.60;;;16.90;95.80;;;;;;5044383;28;20424;-92
2021/07/08 02:13:30;;;;;;;6.60;6.00;;;16.00;95.90;;;;;;5026618;28;20454;-92
2021/07/08 02:16:22;;;;;;;6.63;6.07;;;18.20;97.10;;;;;;5058745;28;20425;-92
2021/07/08 02:19:07;;;;;;;7.40;6.63;;;16.50;96.00;;;;;;5059749;28;20423;-91
2021/07/08 02:21:36;;;;;;;6.93;6.47;;;19.00;97.60;;;;;;5044359;28;20502;-92
2021/07/08 02:24:07;;;;;;;6.73;6.23;;;16.10;96.10;;;;;;5061100;28;20399;-92
2021/07/08 02:26:37;;;;;;;7.00;6.43;;;16.00;96.60;;;;;;5042489;28;20441;-92
2021/07/08 02:29:41;;;;;;;8.20;6.83;;;20.40;98.90;;;;;;5024688;28;20470;-92
2021/07/08 02:32:09;;;;;;;7.23;6.80;;;14.00;94.80;;;;;;5040757;28;20415;-92
2021/07/08 02:34:47;;;;;;;7.60;6.77;;;16.00;96.50;;;;;;5058208;28;20406;-92
2021/07/08 02:37:13;;;;;;;6.10;5.53;;;18.90;98.00;;;;;;5024852;28;20922;-91
2021/07/08 02:39:41;;;;;;;6.40;6.00;;;14.00;95.10;;;;;;5039371;28;20430;-92
2021/07/08 02:42:16;;;;;;;6.33;6.03;;;16.00;97.00;;;;;;5040505;28;20186;-91
2021/07/08 02:44:49;;;;;;;6.40;5.80;;;16.10;95.70;;;;;;5038779;28;20421;-91
2021/07/08 02:47:51;;;;;;;6.80;6.30;;;17.10;96.20;;;;;;5040339;28;20462;-91
2021/07/08 02:50:22;;;;;;;6.37;5.97;;;16.00;95.80;;;;;;5056461;28;20501;-90
2021/07/08 02:52:54;;;;;;;6.63;6.00;;;16.10;96.80;;;;;;5055642;28;20463;-91
2021/07/08 02:55:31;;;;;;;6.30;5.90;;;16.10;96.50;;;;;;5034732;28;20456;-90
2021/07/08 02:57:59;;;;;;;6.73;6.33;;;16.00;96.60;;;;;;5034452;28;20508;-91
2021/07/08 03:00:26;;;;;;;7.17;6.50;;;18.50;99.10;;;;;;5036980;28;20439;-92
2021/07/08 03:02:58;;;;;;;7.40;6.90;;;15.90;97.90;;;;;;5033907;28;20432;-92
2021/07/08 03:05:44;;;;;;;7.70;7.00;;;18.80;99.30;;;;;;5039671;28;20427;-93
2021/07/08 03:08:16;;;;;;;6.10;5.70;;;16.40;99.30;;;;;;5039045;28;20482;-91
2021/07/08 03:10:46;;;;;;;6.10;5.50;;;15.20;96.30;;;;;;5037166;28;20455;-92
2021/07/08 03:13:23;;;;;;;6.67;6.00;;;13.90;94.80;;;;;;5020467;28;20412;-91
2021/07/08 03:15:56;;;;;;;7.03;6.53;;;16.20;96.60;;;;;;5035449;28;20420;-90
2021/07/08 03:18:22;;;;;;;7.00;6.40;;;16.70;96.00;;;;;;5019193;28;20435;-92
2021/07/08 03:20:53;;;;;;;9.50;8.80;;;14.80;96.00;;;;;;5035830;28;20420;-92
2021/07/08 03:23:20;;;;;;;8.10;7.47;;;15.80;96.20;;;;;;4669361;28;9999783;-91
2021/07/08 03:25:45;;;;;;;6.17;5.93;;;15.70;94.90;;;;;;5018955;28;20187;-92
2021/07/08 03:28:32;;;;;;;9.53;7.03;;;13.50;94.90;;;;;;5033689;28;20471;-92
2021/07/08 03:31:30;;;;;;;9.93;6.30;;;18.90;98.60;;;;;;5034791;28;20427;-91
2021/07/08 03:34:01;;;;;;;6.00;5.40;;;17.70;96.70;;;;;;5035587;28;20423;-91
2021/07/08 03:36:32;;;;;;;6.50;6.10;;;15.40;95.30;;;;;;5011493;28;20436;-92
2021/07/08 03:39:08;;;;;;;6.87;6.37;;;15.50;96.10;;;;;;5019961;28;20438;-91
2021/07/08 03:41:44;;;;;;;6.27;5.80;;;16.40;96.20;;;;;;5032429;28;20408;-91
2021/07/08 03:44:15;;;;;;;10.80;6.20;;;18.30;97.60;;;;;;5034934;28;20431;-92
2021/07/08 03:46:44;;;;;;;7.67;7.07;;;15.50;96.80;;;;;;5035317;28;20467;-92
2021/07/08 03:49:17;;;;;;;6.70;6.10;;;15.50;96.40;;;;;;5034235;28;20467;-91
2021/07/08 03:51:51;;;;;;;6.87;6.20;;;15.50;96.40;;;;;;5000054;28;20400;-92
2021/07/08 03:54:23;;;;;;;7.23;6.60;;;15.50;96.40;;;;;;5036102;28;20412;-92
2021/07/08 03:57:06;;;;;;;7.53;7.03;;;15.50;96.00;;;;;;5018613;28;20486;-91
2021/07/08 04:00:14;;;;;;;7.93;7.17;;;16.30;96.50;;;;;;5036284;28;20423;-93
2021/07/08 04:02:50;;;;;;;11.13;7.83;;;18.40;97.80;;;;;;5035938;28;20415;-90
2021/07/08 04:05:16;;;;;;;8.33;7.63;;;18.50;97.40;;;;;;5036668;28;20412;-92
2021/07/08 04:08:08;;;;;;;8.77;7.60;;;15.50;95.80;;;;;;5036516;28;20455;-92
2021/07/08 04:11:00;;;;;;;8.60;7.90;;;15.60;95.90;;;;;;5036741;28;20137;-90
2021/07/08 04:13:27;;;;;;;7.50;7.03;;;15.20;94.90;;;;;;5033282;28;20368;-91
2021/07/08 04:15:53;;;;;;;7.40;6.80;;;15.50;95.60;;;;;;5235868;23;20441;-87
2021/07/08 04:18:20;;;;;;;9.83;6.73;;;15.50;95.90;;;;;;5041496;28;20398;-91
2021/07/08 04:23:21;;;;;;;6.93;6.40;;;15.60;95.10;;;;;;5135218;22;20455;-90
2021/07/08 04:25:46;;;;;;;7.07;6.67;;;15.70;95.50;;;;;;5030474;28;20483;-91
2021/07/08 04:28:12;;;;;;;6.07;5.77;;;15.80;95.20;;;;;;5022126;28;20463;-90
2021/07/08 04:30:41;;;;;;;6.87;6.33;;;15.40;95.70;;;;;;5023840;28;20172;-91
2021/07/08 04:33:07;;;;;;;7.43;6.93;;;15.70;94.80;;;;;;5037979;28;20187;-90
2021/07/08 04:35:37;;;;;;;8.83;7.20;;;15.70;95.00;;;;;;5021589;28;20423;-91
2021/07/08 04:38:05;;;;;;;6.43;5.80;;;15.80;95.50;;;;;;5020528;28;20417;-91
2021/07/08 04:40:30;;;;;;;6.50;6.30;;;15.90;95.90;;;;;;5021909;28;20415;-91
2021/07/08 04:42:56;;;;;;;7.27;6.77;;;16.00;96.10;;;;;;5020602;28;20423;-91
2021/07/08 04:45:22;;;;;;;7.70;7.27;;;14.50;96.60;;;;;;5018944;28;20624;-91
2021/07/08 04:47:49;;;;;;;5.80;5.50;;;16.10;96.00;;;;;;5020485;28;20481;-92
2021/07/08 04:50:17;;;;;;;6.43;5.97;;;16.30;95.70;;;;;;5020082;28;20431;-91
2021/07/08 04:52:45;;;;;;;7.70;6.93;;;16.30;95.00;;;;;;5024157;28;20411;-91
2021/07/08 04:55:11;;;;;;;6.10;5.80;;;18.30;96.20;;;;;;5026201;28;20484;-91
2021/07/08 04:57:40;;;;;;;6.53;6.13;;;16.60;94.20;;;;;;5025392;28;20422;-89
2021/07/08 05:00:12;;;;;;;6.43;6.03;;;16.70;93.90;;;;;;5022341;28;20416;-92
2021/07/08 05:02:42;;;;;;;6.73;6.43;;;16.90;93.10;;;;;;5022060;28;20432;-91
2021/07/08 05:05:09;;;;;;;6.67;6.20;;;18.20;93.90;;;;;;5021070;28;20419;-88
2021/07/08 05:07:36;;;;;;;7.20;5.97;;;16.90;92.90;;;;;;5022290;28;20447;-90
2021/07/08 05:10:04;;;;;;;6.93;6.37;;;15.80;92.90;;;;;;5021971;28;20431;-91
2021/07/08 05:12:30;;;;;;;7.03;6.10;;;17.00;92.90;;;;;;5026388;28;20420;-93
2021/07/08 05:14:59;;;;;;;6.50;6.10;;;17.00;92.50;;;;;;5029286;28;20497;-92
2021/07/08 05:17:31;;;;;;;6.30;6.10;;;20.00;94.40;;;;;;5030225;28;20447;-91
2021/07/08 05:19:58;;;;;;;6.47;5.90;;;18.70;93.20;;;;;;5032209;28;20424;-93
2021/07/08 05:22:25;;;;;;;7.13;6.40;;;17.10;92.70;;;;;;5027160;28;20555;-93
2021/07/08 05:24:51;;;;;;;5.83;5.53;;;17.20;92.40;;;;;;5031285;28;20415;-89
2021/07/08 05:27:19;;;;;;;8.50;7.17;;;17.20;91.60;;;;;;5031125;28;20542;-92
2021/07/08 05:29:48;;;;;;;6.07;5.63;;;17.20;91.50;;;;;;5032143;28;20169;-91
2021/07/08 05:32:13;;;;;;;5.73;5.33;;;17.20;91.80;;;;;;5030741;28;20902;-90
2021/07/08 05:34:42;;;;;;;6.27;5.97;;;17.20;91.60;;;;;;5028677;28;20423;-92
2021/07/08 05:37:10;;;;;;;6.57;6.17;;;17.40;91.50;;;;;;5028981;28;20188;-91
2021/07/08 05:39:36;;;;;;;6.60;6.00;;;17.30;91.40;;;;;;5034154;28;20407;-90
2021/07/08 05:42:06;;;;;;;5.70;5.30;;;17.30;91.40;;;;;;5035900;28;20432;-92
2021/07/08 05:44:33;;;;;;;6.47;5.00;;;17.30;91.40;;;;;;5031567;28;20432;-90
2021/07/08 05:46:59;;;;;;;6.80;5.80;;;17.50;91.30;;;;;;5027772;28;20415;-94
2021/07/08 05:49:25;;;;;;;7.90;6.27;;;17.60;91.00;;;;;;5026670;28;20478;-92
2021/07/08 05:51:50;;;;;;;7.07;6.67;;;17.50;90.60;;;;;;5029821;28;20423;-91
2021/07/08 05:54:19;;;;;;;6.50;5.97;;;17.80;90.70;;;;;;5044954;28;20531;-93
2021/07/08 05:56:45;;;;;;;6.10;5.80;;;19.40;91.60;;;;;;5028540;28;20172;-92
2021/07/08 05:59:12;;;;;;;6.53;6.03;;;17.90;90.50;;;;;;5030599;28;20423;-90
2021/07/08 06:01:40;;;;;;;7.10;6.50;;;17.90;88.80;;;;;;5030158;28;20441;-92
2021/07/08 06:04:15;;;;;;;10.30;6.10;;;16.40;88.60;;;;;;5029743;28;20169;-92
2021/07/08 06:06:43;;;;;;;6.57;6.17;;;17.90;89.50;;;;;;5033523;28;20553;-93
2021/07/08 06:09:12;;;;;;;6.80;6.20;;;17.90;89.40;;;;;;5015594;28;20474;-92
2021/07/08 06:11:44;;;;;;;5.70;5.40;;;18.00;89.20;;;;;;5018497;28;20416;-92
2021/07/08 06:14:10;;;;;;;10.03;6.23;;;18.90;90.50;;;;;;5018374;28;20494;-90
2021/07/08 06:16:36;;;;;;;5.83;5.43;;;18.30;88.10;;;;;;5032120;28;20412;-93
2021/07/08 06:19:04;;;;;;;11.90;6.50;;;18.50;87.00;;;;;;5028911;28;20191;-93
2021/07/08 06:21:34;;;;;;;8.70;6.00;;;20.10;92.50;;;;;;5000419;28;20180;-93
2021/07/08 06:24:02;;;;;;;8.27;7.47;;;18.90;85.50;;;;;;5032248;28;20427;-93
2021/07/08 06:26:28;;;;;;;7.80;5.23;;;21.10;94.30;;;;;;5032701;28;20444;-92
2021/07/08 06:28:58;;;;;;;5.77;5.23;;;20.00;90.60;;;;;;5016546;28;20604;-93
2021/07/08 06:31:27;;;;;;;6.43;5.90;;;19.70;83.00;;;;;;5030808;28;20202;-94
2021/07/08 06:33:56;;;;;;;7.47;6.70;;;22.50;93.10;;;;;;5030032;28;20431;-92
2021/07/08 06:36:22;;;;;;;6.60;6.10;;;18.40;88.90;;;;;;5014096;28;20423;-94
2021/07/08 06:39:30;;;;;;;5.80;5.47;;;22.40;93.90;;;;;;5024664;28;20420;-93
2021/07/08 06:42:12;;;;;;;5.75;5.40;;;20.50;83.10;;;;;;4794376;23;10001685;-95
2021/07/08 06:44:56;;;;;;;6.50;5.97;;;21.10;89.20;;;;;;5028832;28;20184;-94
2021/07/08 06:47:26;;;;;;;6.03;5.57;;;22.40;84.90;;;;;;5187539;22;20494;-93
2021/07/08 06:49:54;;;;;;;5.93;5.60;;;20.80;80.30;;;;;;5033279;28;20415;-94
2021/07/08 06:52:20;;;;;;;5.87;5.40;;;19.90;76.50;;;;;;5024711;28;20895;-93
2021/07/08 06:54:46;;;;;;;5.73;5.30;;;20.00;75.80;;;;;;5030800;28;20416;-92
2021/07/08 06:57:14;;;;;;;5.87;5.53;;;20.40;78.50;;;;;;5052869;28;20200;-92
2021/07/08 06:59:45;;;;;;;6.23;5.77;;;21.10;77.40;;;;;;5037657;28;20442;-94
2021/07/08 07:02:21;;;;;;;8.17;5.00;;;21.60;67.70;;;;;;5315661;22;20516;-93
2021/07/08 07:04:50;;;;;;;8.20;5.23;;;22.90;69.80;;;;;;5054368;28;20427;-91
2021/07/08 07:07:16;;;;;;;4.97;4.53;;;22.70;61.20;;;;;;5211068;23;20480;-92
2021/07/08 07:09:42;;;;;;;5.20;5.00;;;21.70;63.60;;;;;;5376499;23;20239;-94
2021/07/08 07:14:45;;;;;;;6.60;5.13;;;23.70;57.20;;;;;;5373564;22;20490;-92
2021/07/08 07:17:10;;;;;;;7.80;5.10;;;24.10;56.50;;;;;;5304405;22;20546;-91
2021/07/08 07:19:36;;;;;;;4.40;4.20;;;24.70;54.60;;;;;;5055541;28;20407;-92
2021/07/08 07:22:02;;;;;;;5.37;4.80;;;26.80;55.60;;;;;;5035023;28;20228;-90
2021/07/08 07:24:56;;;;;;;7.73;5.20;;;26.60;53.30;;;;;;5052984;28;20290;-92
2021/07/08 07:27:29;;;;;;;3.77;3.67;;;28.90;52.30;;;;;;5138649;22;20572;-93
2021/07/08 07:32:28;;;;;;;6.73;4.90;;;28.50;48.20;;;;;;5284711;22;20224;-93
2021/07/08 07:34:53;;;;;;;4.47;4.17;;;31.70;50.30;;;;;;5555829;22;21542;-92
2021/07/08 07:39:55;;;;;;;6.77;6.37;;;29.40;44.70;;;;;;5164433;22;20215;-93
2021/07/08 07:42:26;;;;;;;4.87;4.60;;;28.80;46.80;;;;;;5033946;28;20470;-93
2021/07/08 07:44:55;;;;;;;4.30;4.20;;;31.20;47.60;;;;;;4987428;28;20419;-93
2021/07/08 07:47:28;;;;;;;4.33;4.23;;;30.10;44.10;;;;;;5144688;23;20490;-94
2021/07/08 07:49:54;;;;;;;4.03;3.83;;;33.30;47.90;;;;;;5031881;28;20486;-93
2021/07/08 07:52:20;;;;;;;4.40;4.00;;;31.00;42.80;;;;;;5033598;28;20427;-92
2021/07/08 07:54:46;;;;;;;4.33;3.90;;;31.40;43.10;;;;;;5033822;28;20431;-92
2021/07/08 07:57:20;;;;;;;4.57;4.00;;;32.00;43.00;;;;;;5031515;28;20172;-94
2021/07/08 07:59:47;;;;;;;3.90;3.60;;;32.30;43.40;;;;;;5013828;28;20184;-94
2021/07/08 08:02:39;;;;;;;3.87;3.67;;;30.60;43.10;;;;;;5031261;28;20489;-95
2021/07/08 08:05:56;;;;;;;4.60;4.30;;;30.40;39.40;;;;;;5030027;28;20424;-91
2021/07/08 08:10:45;;;;;;;3.17;2.97;;;31.90;39.00;;;;;;5028426;28;20438;-94
2021/07/08 08:13:11;;;;;;;3.57;3.40;;;34.50;38.90;;;;;;5020791;28;20465;-92
2021/07/08 08:15:44;;;;;;;3.00;2.90;;;32.60;37.60;;;;;;5025697;28;20435;-92
2021/07/08 08:18:10;;;;;;;3.07;2.87;;;32.80;36.60;;;;;;5029642;28;20544;-91
2021/07/08 08:20:37;;;;;;;3.27;3.17;;;34.60;38.50;;;;;;5012174;28;20478;-91
2021/07/08 08:23:03;;;;;;;3.20;3.10;;;33.60;36.70;;;;;;5028565;28;20423;-91
2021/07/08 08:25:28;;;;;;;3.80;3.60;;;33.00;36.40;;;;;;5025933;28;20412;-92
2021/07/08 08:27:54;;;;;;;3.50;3.30;;;33.10;36.20;;;;;;5035121;28;20460;-94
2021/07/08 08:30:20;;;;;;;3.50;3.40;;;32.50;35.80;;;;;;5033977;28;20215;-95
2021/07/08 08:32:46;;;;;;;2.40;2.30;;;32.40;36.20;;;;;;5031484;28;20416;-92
2021/07/08 08:35:12;;;;;;;3.40;2.93;;;32.50;35.30;;;;;;5011151;28;20527;-93
2021/07/08 08:37:40;;;;;;;2.77;2.67;;;32.60;34.10;;;;;;5027749;28;20474;-93
2021/07/08 08:40:06;;;;;;;2.80;2.60;;;32.80;36.30;;;;;;5018115;28;20430;-90
2021/07/08 08:42:32;;;;;;;3.40;3.13;;;33.30;36.10;;;;;;5015304;28;20466;-90
2021/07/08 08:44:58;;;;;;;3.27;2.97;;;33.20;35.60;;;;;;5016906;28;20403;-89
2021/07/08 08:47:24;;;;;;;3.43;3.13;;;33.00;35.00;;;;;;5022518;28;21285;-91
2021/07/08 08:49:55;;;;;;;4.87;3.50;;;32.80;35.90;;;;;;5018140;28;20661;-90
2021/07/08 08:52:21;;;;;;;3.47;3.27;;;31.90;37.00;;;;;;5018205;28;20422;-91
2021/07/08 08:54:52;;;;;;;3.17;3.03;;;32.10;36.40;;;;;;5017502;28;20484;-90
2021/07/08 08:57:18;;;;;;;3.50;3.40;;;31.80;36.70;;;;;;5036282;28;20407;-91
2021/07/08 08:59:43;;;;;;;4.30;4.20;;;31.00;37.30;;;;;;5036777;28;20501;-89
2021/07/08 09:02:17;;;;;;;3.30;3.10;;;31.00;36.50;;;;;;5040121;28;20766;-91
2021/07/08 09:04:48;;;;;;;3.03;2.77;;;30.80;36.80;;;;;;5037369;28;20171;-91
2021/07/08 09:07:23;;;;;;;3.20;2.70;;;32.00;37.90;;;;;;5038619;28;20414;-90
2021/07/08 09:09:51;;;;;;;3.40;3.30;;;30.70;38.20;;;;;;5022899;28;20430;-89
2021/07/08 09:12:17;;;;;;;3.00;2.80;;;30.80;38.80;;;;;;5021490;28;20414;-93
2021/07/08 09:14:44;;;;;;;3.13;3.03;;;29.90;38.50;;;;;;5022686;28;20437;-93
2021/07/08 09:17:20;;;;;;;3.90;3.70;;;30.70;38.30;;;;;;5026594;28;20478;-92
2021/07/08 09:20:06;;;;;;;4.17;3.90;;;31.10;37.80;;;;;;5026387;28;20430;-92
2021/07/08 09:22:32;;;;;;;4.07;3.60;;;31.30;37.90;;;;;;5041546;28;20909;-92
2021/07/08 09:24:59;;;;;;;3.37;3.17;;;29.90;39.40;;;;;;5044317;28;20418;-91
2021/07/08 09:27:31;;;;;;;2.90;2.80;;;32.20;39.20;;;;;;5031677;28;20462;-92
2021/07/08 09:29:57;;;;;;;3.53;3.33;;;31.10;36.70;;;;;;5013604;28;20450;-91
2021/07/08 09:32:25;;;;;;;3.47;3.30;;;32.00;38.20;;;;;;5046516;28;20407;-92
2021/07/08 09:34:57;;;;;;;2.63;2.63;;;32.70;37.80;;;;;;5027649;28;20172;-91
2021/07/08 09:37:26;;;;;;;3.13;3.13;;;32.60;36.40;;;;;;5044282;28;20479;-91
2021/07/08 09:40:07;;;;;;;4.27;3.50;;;31.90;36.10;;;;;;5026481;28;20905;-93
2021/07/08 09:42:38;;;;;;;3.43;3.27;;;33.10;35.80;;;;;;5027298;28;20722;-92
2021/07/08 09:45:16;;;;;;;21.00;4.17;;;33.60;35.40;;;;;;5028054;28;20450;-92
2021/07/08 09:47:45;;;;;;;3.53;3.23;;;33.20;35.50;;;;;;5027607;28;20477;-90
2021/07/08 09:50:37;;;;;;;3.13;3.10;;;34.00;37.50;;;;;;5029918;28;20466;-89
2021/07/08 09:53:06;;;;;;;3.67;3.57;;;32.10;36.70;;;;;;5028318;28;20422;-92
2021/07/08 09:56:21;;;;;;;3.87;3.67;;;32.40;37.10;;;;;;5029020;28;20425;-89
2021/07/08 09:58:59;;;;;;;4.10;3.90;;;31.60;36.80;;;;;;4694033;28;9999730;-92
2021/07/08 10:01:29;;;;;;;3.90;3.73;;;31.50;36.60;;;;;;5025048;28;20171;-93
2021/07/08 10:03:56;;;;;;;4.00;3.70;;;31.50;36.70;;;;;;5027458;28;20422;-92
2021/07/08 10:06:22;;;;;;;3.90;3.50;;;32.30;38.80;;;;;;5044927;28;20414;-90
2021/07/08 10:08:49;;;;;;;4.23;4.03;;;32.90;39.10;;;;;;5044472;28;20488;-89
2021/07/08 10:11:19;;;;;;;3.63;3.53;;;32.40;36.90;;;;;;5042997;28;20683;-91
2021/07/08 10:13:45;;;;;;;3.40;3.20;;;32.20;35.20;;;;;;5005843;28;20484;-90
2021/07/08 10:16:13;;;;;;;4.10;3.90;;;33.00;35.90;;;;;;5039496;28;20415;-90
2021/07/08 10:18:41;;;;;;;3.57;3.37;;;32.70;36.20;;;;;;5028360;28;20470;-89
2021/07/08 10:21:09;;;;;;;3.20;3.00;;;32.60;35.50;;;;;;5028302;28;20729;-91
2021/07/08 10:23:40;;;;;;;3.57;3.47;;;32.40;35.40;;;;;;5025381;28;20433;-88
2021/07/08 10:26:10;;;;;;;4.37;3.70;;;32.30;36.10;;;;;;5041963;28;20927;-91
2021/07/08 10:28:41;;;;;;;5.97;4.70;;;33.00;39.20;;;;;;5042808;28;20469;-89
2021/07/08 10:31:08;;;;;;;5.87;5.30;;;31.70;38.30;;;;;;5041295;28;20526;-90
2021/07/08 10:33:33;;;;;;;5.27;4.43;;;30.20;38.10;;;;;;5045093;28;20434;-91
2021/07/08 10:35:59;;;;;;;4.57;3.90;;;29.60;40.50;;;;;;5046598;28;20415;-89
2021/07/08 10:38:27;;;;;;;11.10;4.50;;;29.00;41.90;;;;;;5043603;28;20222;-91
2021/07/08 10:40:55;;;;;;;4.40;4.20;;;30.10;43.20;;;;;;5028024;28;20176;-92
2021/07/08 10:43:33;;;;;;;7.20;5.33;;;27.90;42.90;;;;;;5026261;28;20423;-91
2021/07/08 10:46:03;;;;;;;4.00;3.90;;;28.10;43.30;;;;;;5028315;28;20426;-90
2021/07/08 10:48:41;;;;;;;4.57;4.17;;;28.90;44.30;;;;;;5026230;28;20522;-90
2021/07/08 10:51:16;;;;;;;4.60;4.20;;;27.60;43.70;;;;;;5043477;28;20406;-91
2021/07/08 10:53:42;;;;;;;5.83;5.30;;;27.80;43.50;;;;;;5026141;28;20449;-91
2021/07/08 10:56:13;;;;;;;5.07;4.83;;;27.70;44.20;;;;;;5049295;28;20436;-90
2021/07/08 10:58:51;;;;;;;5.87;5.47;;;28.20;44.30;;;;;;5036539;28;20429;-88
2021/07/08 11:01:23;;;;;;;4.17;4.00;;;27.60;43.40;;;;;;5052215;28;20395;-91
2021/07/08 11:03:52;;;;;;;4.80;4.50;;;29.30;44.60;;;;;;5050085;28;20411;-90
2021/07/08 11:06:23;;;;;;;3.90;3.70;;;29.10;44.40;;;;;;5032135;28;20524;-88
2021/07/08 11:09:03;;;;;;;4.70;4.40;;;28.20;43.20;;;;;;5032933;28;20523;-91
2021/07/08 11:11:31;;;;;;;4.20;4.10;;;30.70;43.80;;;;;;5050291;28;20411;-93
2021/07/08 11:14:07;;;;;;;4.83;4.57;;;29.40;42.60;;;;;;5032532;28;20469;-89
2021/07/08 11:16:48;;;;;;;4.03;3.93;;;29.80;40.40;;;;;;5034842;28;20434;-90
2021/07/08 11:19:44;;;;;;;4.17;3.87;;;30.10;40.00;;;;;;5028421;28;20411;-93
2021/07/08 11:22:16;;;;;;;5.10;4.70;;;30.50;39.00;;;;;;5034218;28;20450;-90
2021/07/08 11:24:48;;;;;;;4.87;4.47;;;30.40;39.00;;;;;;5048379;28;20446;-92
2021/07/08 11:27:21;;;;;;;4.73;4.53;;;30.10;39.50;;;;;;5048410;28;20430;-93
2021/07/08 11:30:14;;;;;;;4.60;4.03;;;29.80;40.00;;;;;;5031672;28;20427;-90
2021/07/08 11:32:47;;;;;;;5.40;5.00;;;29.80;41.20;;;;;;5022576;28;20423;-89
2021/07/08 11:35:23;;;;;;;9.13;5.00;;;29.60;40.00;;;;;;5032681;28;20766;-91
2021/07/08 11:38:00;;;;;;;4.67;4.30;;;29.70;41.40;;;;;;5017098;28;20450;-91
2021/07/08 11:40:47;;;;;;;6.27;5.67;;;29.60;40.50;;;;;;5035423;28;20427;-92
2021/07/08 11:43:31;;;;;;;5.27;4.80;;;29.60;42.20;;;;;;5127750;23;20520;-89
2021/07/08 11:46:13;;;;;;;7.43;5.63;;;30.90;43.30;;;;;;5015008;28;20460;-91
2021/07/08 11:48:42;;;;;;;7.07;6.40;;;27.90;41.90;;;;;;5010654;28;20476;-93
2021/07/08 11:51:21;;;;;;;8.07;6.50;;;28.70;43.50;;;;;;5010471;28;20420;-93
2021/07/08 11:53:56;;;;;;;6.20;5.77;;;28.50;44.20;;;;;;5010418;28;20421;-91
2021/07/08 11:56:27;;;;;;;5.90;5.70;;;29.70;45.60;;;;;;4996833;28;20425;-92
2021/07/08 11:59:06;;;;;;;7.23;6.53;;;28.20;44.70;;;;;;5105708;23;20455;-90
2021/07/08 12:04:29;;;;;;;7.23;6.23;;;28.30;43.30;;;;;;5146386;22;20474;-91
2021/07/08 12:14:52;;;;;;;5.30;4.80;;;29.10;42.40;;;;;;5159051;22;20485;-89
2021/07/08 12:17:27;;;;;;;5.23;4.70;;;28.90;42.00;;;;;;5052657;28;20445;-90
2021/07/08 12:20:26;;;;;;;6.10;5.50;;;29.00;41.80;;;;;;5048943;28;20422;-91
2021/07/08 12:22:53;;;;;;;6.23;5.73;;;28.90;42.00;;;;;;5031094;28;20433;-88
2021/07/08 12:25:20;;;;;;;6.07;5.67;;;29.30;41.70;;;;;;5030424;28;20419;-89
2021/07/08 12:27:51;;;;;;;5.70;5.30;;;29.30;41.90;;;;;;5048582;28;20607;-88
2021/07/08 12:30:25;;;;;;;6.07;5.33;;;30.40;42.30;;;;;;5032282;28;20431;-92
2021/07/08 12:33:11;;;;;;;4.57;4.20;;;29.30;41.70;;;;;;4995641;28;20985;-92
2021/07/08 12:35:47;;;;;;;4.87;4.23;;;28.90;41.50;;;;;;5029745;28;20463;-89
2021/07/08 12:38:21;;;;;;;4.43;4.13;;;29.00;41.20;;;;;;5010076;28;20415;-90
2021/07/08 12:41:01;;;;;;;5.13;4.63;;;28.90;43.60;;;;;;5030072;28;20734;-93
2021/07/08 12:43:54;;;;;;;5.33;4.93;;;29.50;43.50;;;;;;5013272;28;20438;-93
2021/07/08 12:46:19;;;;;;;4.60;4.40;;;29.50;42.60;;;;;;5012342;28;20427;-91
2021/07/08 12:48:55;;;;;;;4.83;4.43;;;29.00;45.00;;;;;;5012545;28;20478;-89
2021/07/08 12:51:23;;;;;;;4.23;4.13;;;28.20;41.90;;;;;;5009669;28;20191;-90
2021/07/08 12:53:51;;;;;;;5.17;4.47;;;30.80;42.10;;;;;;5013971;28;20416;-92
2021/07/08 12:56:26;;;;;;;4.30;4.00;;;27.90;42.40;;;;;;5008640;28;20466;-91
2021/07/08 12:58:57;;;;;;;4.03;3.93;;;27.30;41.60;;;;;;5034761;28;20405;-91
2021/07/08 13:01:29;;;;;;;10.13;6.67;;;29.40;41.60;;;;;;5057796;28;20433;-88
2021/07/08 13:03:58;;;;;;;5.23;4.90;;;28.10;41.10;;;;;;5036650;28;20422;-92
2021/07/08 13:06:29;;;;;;;5.27;4.97;;;27.50;53.00;;;;;;5032823;28;20414;-90
2021/07/08 13:09:35;;;;;;;3.90;3.80;;;27.90;49.70;;;;;;5031809;28;20580;-91
2021/07/08 13:12:21;;;;;;;4.20;4.00;;;28.50;48.40;;;;;;5001606;28;20490;-88
2021/07/08 13:14:50;;;;;;;4.40;3.87;;;29.00;49.80;;;;;;5052561;28;20446;-91
2021/07/08 13:17:16;;;;;;;4.30;4.10;;;27.80;50.80;;;;;;5046500;28;20414;-90
2021/07/08 13:19:44;;;;;;;4.10;3.70;;;27.80;51.70;;;;;;5043096;28;20402;-90
2021/07/08 13:22:20;;;;;;;4.63;4.27;;;27.90;48.90;;;;;;5030736;28;20410;-92
2021/07/08 13:24:50;;;;;;;3.80;3.70;;;28.20;48.60;;;;;;5049664;28;20422;-92
2021/07/08 13:27:43;;;;;;;4.53;4.17;;;29.40;43.30;;;;;;5030713;28;20418;-92
2021/07/08 13:30:29;;;;;;;4.10;3.90;;;27.60;41.90;;;;;;5049653;28;20422;-93
2021/07/08 13:33:13;;;;;;;4.30;4.10;;;27.70;42.50;;;;;;5028513;28;20746;-91
2021/07/08 13:36:06;;;;;;;3.73;3.43;;;27.90;42.20;;;;;;4666249;28;10000473;-90
2021/07/08 13:38:34;;;;;;;6.20;3.30;;;27.70;41.40;;;;;;5009825;28;20502;-91
2021/07/08 13:41:08;;;;;;;5.47;4.63;;;27.40;43.60;;;;;;5014029;28;20483;-89
2021/07/08 13:44:02;;;;;;;3.77;3.67;;;30.60;43.90;;;;;;5012324;28;20411;-93
2021/07/08 13:49:20;;;;;;;6.07;5.60;;;27.70;40.90;;;;;;5672287;22;20477;-88